CDT,Max TemperatureF,Mean TemperatureF,Min TemperatureF,Max Dew PointF,MeanDew PointF,Min DewpointF,Max Humidity, Mean Humidity, Min Humidity, Max Sea Level PressureIn, Mean Sea Level PressureIn, Min Sea Level PressureIn, Max VisibilityMiles, Mean VisibilityMiles, Min VisibilityMiles, Max Wind SpeedMPH, Mean Wind SpeedMPH, Max Gust SpeedMPH,PrecipitationIn, CloudCover, Events, WindDirDegrees
2011-10-1,64,50,37,39,33,23,100,60,21,30.36,30.29,30.20,10,10,5,9,2,,0.00,0,,26
2011-10-2,71,54,37,45,36,27,93,59,19,30.32,30.26,30.19,10,10,4,6,1,,0.00,0,,184
2011-10-3,78,61,44,43,36,27,87,47,15,30.27,30.22,30.19,10,10,7,5,1,,0.00,0,,238
2011-10-4,82,63,44,46,40,30,100,49,16,30.29,30.22,30.17,10,10,10,12,2,16,0.00,0,,178
2011-10-5,82,66,51,46,41,37,76,42,20,30.24,30.19,30.12,10,10,4,12,7,,0.00,0,,175
2011-10-6,84,70,55,50,46,43,72,46,23,30.21,30.16,30.10,10,10,10,14,7,20,0.00,0,,159
2011-10-7,86,72,59,54,49,37,77,47,18,30.22,30.17,30.12,10,10,7,18,9,26,0.00,0,,169
2011-10-8,84,72,59,54,49,43,77,50,23,30.26,30.21,30.17,10,10,10,15,9,22,0.00,0,,168
2011-10-9,80,70,59,54,50,46,82,52,30,30.30,30.23,30.17,10,10,10,16,8,21,0.00,0,,148
2011-10-10,80,66,51,54,50,46,82,55,37,30.17,30.08,30.01,10,10,7,10,6,,0.00,1,,156
2011-10-11,77,68,60,64,59,54,94,77,54,30.01,29.95,29.88,10,10,7,8,3,,0.07,5,Rain,150
2011-10-12,71,65,59,63,59,54,100,89,69,29.86,29.74,29.64,10,9,2,13,3,,0.51,5,Rain,175
2011-10-13,71,63,55,57,51,37,100,73,31,29.67,29.64,29.62,10,8,3,25,10,31,0.00,4,Rain,293
2011-10-14,64,57,50,43,38,34,67,51,34,29.88,29.79,29.70,10,10,10,25,12,37,0.00,1,,282
2011-10-15,69,56,42,39,34,27,76,48,20,30.04,29.96,29.90,10,10,10,21,10,29,0.00,0,,263
2011-10-16,64,58,51,45,39,34,67,52,32,29.99,29.88,29.77,10,10,10,18,9,26,0.00,0,,276
2011-10-17,51,45,39,39,35,30,81,64,50,30.02,29.97,29.92,10,10,10,16,6,18,0.00,3,Rain,270
2011-10-18,53,48,44,39,35,28,81,64,38,29.93,29.89,29.87,10,10,10,20,8,26,0.00,2,,314
2011-10-19,51,46,42,37,34,28,81,64,41,29.89,29.86,29.83,10,10,10,24,14,30,0.00,8,Rain,344
2011-10-20,53,45,37,34,31,28,87,62,41,29.96,29.86,29.81,10,10,10,23,15,31,0.00,2,,305
2011-10-21,60,46,33,34,28,25,81,52,25,30.15,30.09,30.01,10,10,10,13,6,16,0.00,0,,260
2011-10-22,69,56,44,39,36,34,71,49,27,30.09,30.06,30.03,10,10,10,10,6,,0.00,0,,257
2011-10-23,73,60,46,46,42,36,87,55,27,30.02,29.96,29.89,10,10,10,14,3,20,0.00,4,Rain,213
2011-10-24,69,56,42,46,41,36,93,60,31,30.17,30.08,29.95,10,10,10,12,6,,0.00,0,,239
2011-10-25,78,66,55,54,46,37,67,48,34,30.01,29.85,29.70,10,10,10,23,12,30,0.00,2,Rain,190
2011-10-26,62,55,48,50,44,39,93,78,63,30.03,29.94,29.79,10,9,3,20,12,24,0.00,7,,345
2011-10-27,55,47,39,41,33,18,87,60,23,30.12,30.07,30.02,10,10,10,16,6,21,0.00,4,,315
2011-10-28,60,46,33,34,25,18,87,49,19,30.20,30.14,30.05,10,10,10,14,3,28,0.00,3,Rain,243
2011-10-29,59,46,33,27,20,14,60,36,18,30.16,30.09,30.02,10,10,10,13,6,18,0.00,0,,242
2011-10-30,57,52,46,43,34,19,87,54,32,30.02,29.96,29.91,10,10,5,18,10,24,0.05,3,Rain,201
2011-10-31,55,44,33,34,28,27,75,54,36,30.12,30.07,30.00,10,10,10,10,5,,0.00,0,,264